Time;durP1;ratioP1;P1;durP2;ratioP2;P2;SDS_P1;SDS_P2;PMS_P1;PMS_P2;Temp;Humidity;BMP_temperature;BMP_pressure;BME280_temperature;BME280_humidity;BME280_pressure;Samples;Min_cycle;Max_cycle;Signal;HPM_P1;HPM_P2
2023/04/13 00:02:32;;;;;;;5.22;2.50;;;;;;;;;;6181765;23;20051;-84
2023/04/13 00:05:16;;;;;;;5.93;2.50;;;;;;;;;;6182126;23;20189;-84
2023/04/13 00:08:01;;;;;;;4.65;2.33;;;;;;;;;;6182089;23;20020;-83
2023/04/13 00:10:47;;;;;;;5.18;2.65;;;;;;;;;;6181467;23;20024;-83
2023/04/13 00:13:39;;;;;;;7.72;2.80;;;;;;;;;;6182818;23;20081;-83
2023/04/13 00:16:27;;;;;;;7.22;2.40;;;;;;;;;;6181528;23;20356;-88
2023/04/13 00:19:12;;;;;;;5.05;2.35;;;;;;;;;;6181962;23;20020;-83
2023/04/13 00:21:59;;;;;;;5.70;2.78;;;;;;;;;;6181979;23;20463;-83
2023/04/13 00:24:43;;;;;;;8.30;3.17;;;;;;;;;;6182639;23;20016;-83
2023/04/13 00:27:29;;;;;;;7.00;2.70;;;;;;;;;;6182687;23;20071;-83
2023/04/13 00:30:15;;;;;;;4.75;2.63;;;;;;;;;;6183230;23;20458;-83
2023/04/13 00:33:02;;;;;;;3.95;2.60;;;;;;;;;;6183220;23;20063;-84
2023/04/13 00:35:47;;;;;;;6.47;2.90;;;;;;;;;;6182681;23;20012;-83
2023/04/13 00:38:31;;;;;;;4.93;2.60;;;;;;;;;;6182447;23;20100;-83
2023/04/13 00:41:16;;;;;;;4.32;2.67;;;;;;;;;;6160981;23;20024;-84
2023/04/13 00:44:01;;;;;;;4.32;2.90;;;;;;;;;;6183194;23;20024;-84
2023/04/13 00:46:47;;;;;;;5.22;4.05;;;;;;;;;;6182487;23;20403;-84
2023/04/13 00:49:35;;;;;;;7.70;3.03;;;;;;;;;;6181323;23;20064;-84
2023/04/13 00:52:20;;;;;;;6.25;3.20;;;;;;;;;;6183247;23;20024;-83
2023/04/13 00:55:05;;;;;;;5.55;3.35;;;;;;;;;;6183007;23;20020;-82
2023/04/13 00:57:51;;;;;;;5.13;3.28;;;;;;;;;;6182405;23;20155;-83
2023/04/13 01:00:41;;;;;;;5.97;4.03;;;;;;;;;;6184155;23;20439;-84
2023/04/13 01:03:26;;;;;;;9.25;3.83;;;;;;;;;;6184822;23;20016;-85
2023/04/13 01:06:17;;;;;;;7.82;3.80;;;;;;;;;;6183726;23;20036;-84
2023/04/13 01:09:08;;;;;;;9.75;4.55;;;;;;;;;;6184838;23;20048;-84
2023/04/13 01:12:01;;;;;;;7.32;4.50;;;;;;;;;;6184175;23;20024;-84
2023/04/13 01:14:48;;;;;;;4.75;3.47;;;;;;;;;;6182649;23;20068;-86
2023/04/13 01:17:33;;;;;;;8.38;3.88;;;;;;;;;;6183078;23;20028;-87
2023/04/13 01:20:19;;;;;;;5.50;2.65;;;;;;;;;;6183546;23;20024;-84
2023/04/13 01:23:06;;;;;;;5.32;2.90;;;;;;;;;;6183510;23;20458;-83
2023/04/13 01:25:55;;;;;;;5.88;2.72;;;;;;;;;;6184048;23;20151;-84
2023/04/13 01:28:40;;;;;;;5.18;2.65;;;;;;;;;;6182796;23;20196;-84
2023/04/13 01:31:25;;;;;;;6.40;2.67;;;;;;;;;;6183417;23;20144;-84
2023/04/13 01:34:09;;;;;;;10.35;3.33;;;;;;;;;;6162392;23;20091;-87
2023/04/13 01:36:55;;;;;;;6.88;2.50;;;;;;;;;;6182505;23;20074;-84
2023/04/13 01:39:40;;;;;;;5.30;2.33;;;;;;;;;;6183762;23;20016;-83
2023/04/13 01:42:24;;;;;;;6.75;2.47;;;;;;;;;;6183338;23;20059;-84
2023/04/13 01:45:22;;;;;;;5.28;2.20;;;;;;;;;;6184603;23;20024;-85
2023/04/13 01:48:11;;;;;;;4.30;2.50;;;;;;;;;;6184061;23;20386;-84
2023/04/13 01:50:57;;;;;;;7.75;2.42;;;;;;;;;;6182734;23;20807;-85
2023/04/13 01:53:43;;;;;;;6.93;2.70;;;;;;;;;;6182459;23;20012;-84
2023/04/13 01:56:28;;;;;;;10.27;2.75;;;;;;;;;;6183265;23;20063;-84
2023/04/13 01:59:15;;;;;;;8.27;2.33;;;;;;;;;;6184530;23;20085;-84
2023/04/13 02:01:59;;;;;;;3.72;2.40;;;;;;;;;;6183577;23;20185;-84
2023/04/13 02:04:44;;;;;;;8.02;2.70;;;;;;;;;;6182551;23;20725;-84
2023/04/13 02:07:29;;;;;;;4.30;2.20;;;;;;;;;;6162124;23;20020;-84
2023/04/13 02:10:15;;;;;;;5.93;2.20;;;;;;;;;;6183753;23;20060;-84
2023/04/13 02:13:00;;;;;;;7.40;2.15;;;;;;;;;;6183583;23;20036;-85
2023/04/13 02:15:46;;;;;;;5.57;1.85;;;;;;;;;;6181682;23;20408;-85
2023/04/13 02:18:30;;;;;;;4.28;2.00;;;;;;;;;;6184294;23;20128;-84
2023/04/13 02:21:15;;;;;;;9.65;2.20;;;;;;;;;;6182887;23;20471;-85
2023/04/13 02:24:00;;;;;;;4.55;2.45;;;;;;;;;;6182306;23;20032;-85
2023/04/13 02:26:44;;;;;;;6.38;1.88;;;;;;;;;;6182270;23;20098;-85
2023/04/13 02:29:29;;;;;;;4.88;2.05;;;;;;;;;;6182960;23;20012;-84
2023/04/13 02:32:14;;;;;;;5.40;1.90;;;;;;;;;;6182932;23;20020;-85
2023/04/13 02:35:00;;;;;;;8.60;2.10;;;;;;;;;;6183566;23;20068;-84
2023/04/13 02:37:45;;;;;;;4.93;1.95;;;;;;;;;;6183406;23;20467;-86
2023/04/13 02:40:30;;;;;;;3.30;2.20;;;;;;;;;;6183897;23;20502;-85
2023/04/13 02:43:14;;;;;;;5.15;1.92;;;;;;;;;;6182735;23;20097;-85
2023/04/13 02:45:59;;;;;;;5.55;1.98;;;;;;;;;;6182292;23;20031;-85
2023/04/13 02:48:44;;;;;;;4.00;2.65;;;;;;;;;;6182925;23;20015;-85
2023/04/13 02:51:28;;;;;;;4.13;2.00;;;;;;;;;;6182660;23;20060;-86
2023/04/13 02:54:13;;;;;;;8.75;1.90;;;;;;;;;;6182577;23;20399;-85
2023/04/13 02:57:00;;;;;;;4.40;2.28;;;;;;;;;;6161207;23;20096;-86
2023/04/13 02:59:45;;;;;;;7.43;1.90;;;;;;;;;;6182611;23;20019;-85
2023/04/13 03:02:30;;;;;;;8.23;2.05;;;;;;;;;;6182726;23;20079;-85
2023/04/13 03:05:18;;;;;;;3.67;2.15;;;;;;;;;;6182483;23;20048;-85
2023/04/13 03:08:04;;;;;;;3.80;1.80;;;;;;;;;;6181839;23;20067;-86
2023/04/13 03:10:48;;;;;;;4.13;1.70;;;;;;;;;;6182254;23;20116;-88
2023/04/13 03:13:33;;;;;;;4.50;2.10;;;;;;;;;;6182604;23;20023;-86
2023/04/13 03:16:17;;;;;;;6.00;2.05;;;;;;;;;;6183933;23;20072;-85
2023/04/13 03:19:02;;;;;;;3.80;2.10;;;;;;;;;;6182990;23;20036;-85
2023/04/13 03:21:47;;;;;;;4.13;2.30;;;;;;;;;;6183585;23;20144;-85
2023/04/13 03:24:33;;;;;;;6.32;2.83;;;;;;;;;;6183661;23;20028;-85
2023/04/13 03:27:21;;;;;;;3.35;2.10;;;;;;;;;;6183564;23;20075;-86
2023/04/13 03:30:06;;;;;;;4.35;1.98;;;;;;;;;;6161346;23;20028;-85
2023/04/13 03:32:51;;;;;;;4.93;1.83;;;;;;;;;;6182119;23;20016;-89
2023/04/13 03:35:36;;;;;;;5.30;2.17;;;;;;;;;;6161429;23;20020;-86
2023/04/13 03:38:20;;;;;;;4.97;1.90;;;;;;;;;;6183681;23;20417;-86
2023/04/13 03:41:05;;;;;;;4.95;2.13;;;;;;;;;;6182786;23;20072;-86
2023/04/13 03:43:50;;;;;;;3.85;1.75;;;;;;;;;;6182412;23;20108;-86
2023/04/13 03:46:38;;;;;;;5.70;2.30;;;;;;;;;;6183497;23;20063;-86
2023/04/13 03:49:22;;;;;;;3.42;1.95;;;;;;;;;;6183578;23;20394;-85
2023/04/13 03:52:07;;;;;;;4.15;2.70;;;;;;;;;;6181664;23;20023;-85
2023/04/13 03:54:51;;;;;;;5.20;2.33;;;;;;;;;;6183337;23;20015;-85
2023/04/13 03:57:36;;;;;;;5.20;2.90;;;;;;;;;;6183499;23;20020;-85
2023/04/13 04:00:21;;;;;;;4.68;2.92;;;;;;;;;;6181905;23;20024;-86
2023/04/13 04:03:05;;;;;;;3.72;2.10;;;;;;;;;;6181434;23;20391;-86
2023/04/13 04:05:50;;;;;;;4.40;2.33;;;;;;;;;;6183539;23;20200;-85
2023/04/13 04:08:35;;;;;;;4.80;2.17;;;;;;;;;;6182140;23;20052;-84
2023/04/13 04:11:21;;;;;;;3.28;2.00;;;;;;;;;;6182836;23;20141;-84
2023/04/13 04:14:06;;;;;;;4.82;2.42;;;;;;;;;;6182723;23;20041;-85
2023/04/13 04:16:51;;;;;;;3.13;1.95;;;;;;;;;;6181880;23;20072;-84
2023/04/13 04:19:36;;;;;;;5.95;2.55;;;;;;;;;;6181858;23;20184;-85
2023/04/13 04:22:21;;;;;;;4.70;2.45;;;;;;;;;;6160424;23;20024;-85
2023/04/13 04:25:05;;;;;;;4.00;2.38;;;;;;;;;;6181462;23;20047;-86
2023/04/13 04:27:56;;;;;;;4.57;2.08;;;;;;;;;;6183305;23;20020;-85
2023/04/13 04:30:44;;;;;;;4.82;2.10;;;;;;;;;;6183382;23;20093;-85
2023/04/13 04:33:29;;;;;;;4.75;2.55;;;;;;;;;;6182794;23;20020;-85
2023/04/13 04:36:15;;;;;;;6.00;2.75;;;;;;;;;;6183271;23;20063;-85
2023/04/13 04:39:01;;;;;;;4.20;2.55;;;;;;;;;;6185194;23;20071;-87
2023/04/13 04:41:45;;;;;;;5.90;3.47;;;;;;;;;;6163182;23;20091;-85
2023/04/13 04:44:30;;;;;;;8.65;3.03;;;;;;;;;;6183933;23;20430;-85
2023/04/13 04:47:16;;;;;;;5.15;3.33;;;;;;;;;;6184306;23;20096;-85
2023/04/13 04:50:00;;;;;;;5.95;3.40;;;;;;;;;;6184622;23;20019;-86
2023/04/13 04:52:45;;;;;;;6.22;3.70;;;;;;;;;;6183720;23;20020;-85
2023/04/13 04:55:29;;;;;;;5.97;4.13;;;;;;;;;;6184277;23;20036;-85
2023/04/13 04:58:14;;;;;;;7.60;4.13;;;;;;;;;;6183296;23;20016;-86
2023/04/13 05:00:59;;;;;;;8.40;4.05;;;;;;;;;;6183276;23;20052;-85
2023/04/13 05:03:43;;;;;;;6.30;4.40;;;;;;;;;;6184828;23;20020;-85
2023/04/13 05:06:32;;;;;;;6.32;3.88;;;;;;;;;;6183104;23;20020;-86
2023/04/13 05:09:18;;;;;;;7.70;3.75;;;;;;;;;;6182968;23;20440;-85
2023/04/13 05:12:03;;;;;;;6.85;4.22;;;;;;;;;;6183622;23;20027;-85
2023/04/13 05:14:47;;;;;;;8.55;4.22;;;;;;;;;;6183794;23;20036;-87
2023/04/13 05:17:32;;;;;;;6.55;4.57;;;;;;;;;;6184750;23;20025;-86
2023/04/13 05:20:18;;;;;;;5.47;3.35;;;;;;;;;;6182879;23;20502;-85
2023/04/13 05:23:02;;;;;;;8.90;3.90;;;;;;;;;;6183388;23;20055;-84
2023/04/13 05:25:47;;;;;;;8.55;4.18;;;;;;;;;;6162066;23;20020;-85
2023/04/13 05:28:33;;;;;;;6.13;3.63;;;;;;;;;;6183435;23;20021;-84
2023/04/13 05:31:17;;;;;;;6.68;3.88;;;;;;;;;;6183958;23;20020;-85
2023/04/13 05:34:02;;;;;;;7.95;4.00;;;;;;;;;;6182980;23;20052;-85
2023/04/13 05:36:46;;;;;;;8.52;4.40;;;;;;;;;;6183095;23;20020;-85
2023/04/13 05:39:31;;;;;;;9.45;4.72;;;;;;;;;;6182542;23;20012;-85
2023/04/13 05:42:15;;;;;;;11.55;4.55;;;;;;;;;;6182322;23;20087;-85
2023/04/13 05:45:00;;;;;;;7.75;3.95;;;;;;;;;;6184236;23;20024;-84
2023/04/13 05:47:44;;;;;;;7.93;4.47;;;;;;;;;;6182691;23;20020;-84
2023/04/13 05:50:29;;;;;;;8.13;4.55;;;;;;;;;;6183651;23;20020;-85
2023/04/13 05:53:14;;;;;;;9.45;4.28;;;;;;;;;;6183627;23;20063;-86
2023/04/13 05:55:59;;;;;;;9.70;4.03;;;;;;;;;;6184354;23;20136;-85
2023/04/13 05:58:43;;;;;;;9.02;4.18;;;;;;;;;;6184470;23;20093;-85
2023/04/13 06:01:28;;;;;;;9.75;5.03;;;;;;;;;;6182201;23;20028;-86
2023/04/13 06:04:14;;;;;;;9.35;3.95;;;;;;;;;;6183863;23;20016;-89
2023/04/13 06:06:59;;;;;;;7.97;4.47;;;;;;;;;;6182877;23;20020;-85
2023/04/13 06:09:44;;;;;;;10.73;4.60;;;;;;;;;;6184323;23;20332;-85
2023/04/13 06:12:29;;;;;;;6.63;3.92;;;;;;;;;;6182390;23;20071;-85
2023/04/13 06:15:14;;;;;;;9.48;3.67;;;;;;;;;;6183773;23;20024;-87
2023/04/13 06:17:59;;;;;;;9.35;3.80;;;;;;;;;;6183052;23;20063;-85
2023/04/13 06:20:43;;;;;;;6.43;4.05;;;;;;;;;;6182711;23;20351;-84
2023/04/13 06:23:28;;;;;;;9.57;4.57;;;;;;;;;;6182281;23;20092;-86
2023/04/13 06:26:12;;;;;;;8.98;3.40;;;;;;;;;;6161773;23;20451;-84
2023/04/13 06:28:57;;;;;;;7.60;3.33;;;;;;;;;;6182926;23;20088;-84
2023/04/13 06:31:41;;;;;;;8.93;3.63;;;;;;;;;;6183456;23;20024;-84
2023/04/13 06:34:26;;;;;;;10.05;4.05;;;;;;;;;;6181973;23;20032;-84
2023/04/13 06:37:11;;;;;;;11.52;4.15;;;;;;;;;;6182611;23;20399;-84
2023/04/13 06:39:56;;;;;;;10.25;3.05;;;;;;;;;;6183900;23;20076;-85
2023/04/13 06:42:41;;;;;;;7.38;3.40;;;;;;;;;;6181679;23;20067;-86
2023/04/13 06:45:26;;;;;;;7.68;3.72;;;;;;;;;;6182134;23;20016;-86
2023/04/13 06:48:10;;;;;;;5.43;3.28;;;;;;;;;;6183897;23;20364;-86
2023/04/13 06:50:55;;;;;;;8.82;3.50;;;;;;;;;;6183899;23;20039;-85
2023/04/13 06:53:40;;;;;;;7.25;3.42;;;;;;;;;;6183373;23;20075;-86
2023/04/13 06:56:24;;;;;;;9.45;4.28;;;;;;;;;;6181648;23;20024;-87
2023/04/13 06:59:09;;;;;;;4.90;3.33;;;;;;;;;;6183744;23;20071;-84
2023/04/13 07:01:54;;;;;;;11.90;3.55;;;;;;;;;;6182893;23;20067;-85
2023/04/13 07:04:39;;;;;;;11.85;3.85;;;;;;;;;;6160528;23;20031;-85
2023/04/13 07:07:24;;;;;;;9.52;3.40;;;;;;;;;;6181692;23;20020;-86
2023/04/13 07:10:09;;;;;;;8.80;3.60;;;;;;;;;;6182373;23;20015;-84
2023/04/13 07:12:53;;;;;;;9.73;3.80;;;;;;;;;;6182177;23;20012;-84
2023/04/13 07:15:38;;;;;;;4.80;2.97;;;;;;;;;;6181431;23;20083;-84
2023/04/13 07:18:22;;;;;;;7.32;2.40;;;;;;;;;;6161183;23;20017;-86
2023/04/13 07:21:07;;;;;;;7.43;3.05;;;;;;;;;;6183399;23;20104;-85
2023/04/13 07:23:52;;;;;;;5.97;2.63;;;;;;;;;;6160705;23;20339;-85
2023/04/13 07:26:39;;;;;;;8.73;2.70;;;;;;;;;;6181867;23;20340;-85
2023/04/13 07:29:27;;;;;;;6.18;2.35;;;;;;;;;;6183503;23;20016;-85
2023/04/13 07:32:12;;;;;;;5.97;2.13;;;;;;;;;;6183533;23;20091;-85
2023/04/13 07:35:00;;;;;;;8.32;2.15;;;;;;;;;;6183588;23;20020;-86
2023/04/13 07:37:45;;;;;;;4.68;2.20;;;;;;;;;;6182919;23;20391;-86
2023/04/13 07:40:30;;;;;;;8.95;1.98;;;;;;;;;;6160671;23;20111;-85
2023/04/13 07:43:15;;;;;;;5.88;1.85;;;;;;;;;;6183212;23;20016;-87
2023/04/13 07:45:59;;;;;;;5.15;1.75;;;;;;;;;;6181971;23;20083;-85
2023/04/13 07:48:44;;;;;;;7.07;2.33;;;;;;;;;;6181608;23;20012;-85
2023/04/13 07:51:31;;;;;;;6.53;1.88;;;;;;;;;;6181700;23;20020;-88
2023/04/13 07:54:16;;;;;;;9.55;1.73;;;;;;;;;;6182288;23;20347;-85
2023/04/13 07:57:02;;;;;;;5.53;1.67;;;;;;;;;;6182596;23;20100;-86
2023/04/13 07:59:47;;;;;;;11.35;2.45;;;;;;;;;;6181549;23;20067;-83
2023/04/13 08:02:32;;;;;;;13.27;2.53;;;;;;;;;;6182825;23;20040;-88
2023/04/13 08:05:16;;;;;;;6.13;2.53;;;;;;;;;;6182604;23;20510;-85
2023/04/13 08:08:01;;;;;;;5.43;3.08;;;;;;;;;;6178072;23;20067;-84
2023/04/13 08:10:45;;;;;;;6.40;2.50;;;;;;;;;;6182583;23;20019;-85
2023/04/13 08:13:30;;;;;;;25.65;4.93;;;;;;;;;;6161670;23;20041;-84
2023/04/13 08:16:15;;;;;;;5.38;2.40;;;;;;;;;;6183182;23;20020;-84
2023/04/13 08:19:00;;;;;;;8.13;2.60;;;;;;;;;;6162398;23;20036;-85
2023/04/13 08:21:45;;;;;;;10.02;3.38;;;;;;;;;;6182466;23;20144;-85
2023/04/13 08:24:30;;;;;;;7.03;2.50;;;;;;;;;;6183406;23;20024;-86
2023/04/13 08:27:14;;;;;;;9.98;2.40;;;;;;;;;;6184127;23;20352;-85
2023/04/13 08:30:00;;;;;;;6.65;2.50;;;;;;;;;;6182860;23;20619;-85
2023/04/13 08:32:45;;;;;;;10.48;2.65;;;;;;;;;;6182583;23;20075;-85
2023/04/13 08:35:31;;;;;;;6.95;3.22;;;;;;;;;;6162525;23;20317;-85
2023/04/13 08:38:16;;;;;;;8.02;2.55;;;;;;;;;;6184191;23;20089;-85
2023/04/13 08:41:02;;;;;;;8.63;2.15;;;;;;;;;;6162099;23;20024;-86
2023/04/13 08:43:48;;;;;;;5.35;2.80;;;;;;;;;;6183852;23;20439;-85
2023/04/13 08:46:33;;;;;;;8.43;2.13;;;;;;;;;;6182998;23;20336;-85
2023/04/13 08:49:18;;;;;;;3.42;1.77;;;;;;;;;;6183273;23;20021;-85
2023/04/13 08:52:04;;;;;;;6.88;2.10;;;;;;;;;;6184350;23;20502;-85
2023/04/13 08:54:50;;;;;;;6.55;2.00;;;;;;;;;;6182720;23;20077;-85
2023/04/13 08:57:35;;;;;;;5.05;1.92;;;;;;;;;;6182995;23;20387;-86
2023/04/13 09:00:22;;;;;;;7.25;1.90;;;;;;;;;;6182894;23;20160;-86
2023/04/13 09:03:09;;;;;;;6.45;2.15;;;;;;;;;;6184065;23;20075;-85
2023/04/13 09:05:58;;;;;;;4.53;1.60;;;;;;;;;;6185270;23;20019;-85
2023/04/13 09:08:45;;;;;;;7.03;2.33;;;;;;;;;;6182335;23;20459;-85
2023/04/13 09:11:30;;;;;;;3.13;1.30;;;;;;;;;;6182609;23;20388;-85
2023/04/13 09:14:18;;;;;;;3.35;1.40;;;;;;;;;;6183116;23;20335;-85
2023/04/13 09:17:04;;;;;;;5.22;1.20;;;;;;;;;;6181948;23;20032;-86
2023/04/13 09:19:48;;;;;;;2.95;1.10;;;;;;;;;;6181992;23;20013;-85
2023/04/13 09:22:33;;;;;;;2.30;1.10;;;;;;;;;;6181862;23;20419;-86
2023/04/13 09:25:21;;;;;;;7.50;1.23;;;;;;;;;;6182673;23;20023;-85
2023/04/13 09:28:07;;;;;;;3.25;1.23;;;;;;;;;;6182846;23;20056;-85
2023/04/13 09:31:01;;;;;;;3.08;1.25;;;;;;;;;;6161172;23;20091;-85
2023/04/13 09:33:49;;;;;;;3.83;1.10;;;;;;;;;;6183429;23;20016;-86
2023/04/13 09:36:35;;;;;;;4.65;0.90;;;;;;;;;;6183133;23;20016;-84
2023/04/13 09:39:26;;;;;;;4.88;1.73;;;;;;;;;;6183911;23;20340;-86
2023/04/13 09:42:14;;;;;;;1.88;0.85;;;;;;;;;;6161411;23;20467;-85
2023/04/13 09:44:59;;;;;;;3.58;0.90;;;;;;;;;;6183484;23;20024;-86
2023/04/13 09:47:44;;;;;;;4.20;0.95;;;;;;;;;;6182457;23;20043;-86
2023/04/13 09:50:32;;;;;;;2.00;0.80;;;;;;;;;;6183717;23;20048;-85
2023/04/13 09:53:17;;;;;;;2.90;0.93;;;;;;;;;;6183924;23;20344;-86
2023/04/13 09:56:02;;;;;;;1.95;0.85;;;;;;;;;;6183113;23;20071;-85
2023/04/13 09:58:47;;;;;;;3.40;1.10;;;;;;;;;;6160259;23;20020;-87
2023/04/13 10:01:51;;;;;;;3.55;1.55;;;;;;;;;;6184417;23;20016;-88
2023/04/13 10:04:36;;;;;;;2.35;1.00;;;;;;;;;;6182449;23;20055;-88
2023/04/13 10:07:25;;;;;;;1.20;0.77;;;;;;;;;;6183076;23;20079;-85
2023/04/13 10:10:10;;;;;;;2.08;0.70;;;;;;;;;;6184403;23;20016;-86
2023/04/13 10:12:57;;;;;;;5.28;0.85;;;;;;;;;;6182363;23;20024;-89
2023/04/13 10:16:02;;;;;;;2.22;0.75;;;;;;;;;;6184041;23;20016;-88
2023/04/13 10:19:05;;;;;;;2.17;0.80;;;;;;;;;;6162252;23;20016;-88
2023/04/13 10:21:50;;;;;;;5.18;0.80;;;;;;;;;;6184945;23;20020;-91
2023/04/13 10:24:35;;;;;;;2.50;0.90;;;;;;;;;;6184825;23;20020;-93
2023/04/13 10:27:38;;;;;;;;;;;;;;;;;;;;;
2023/04/13 10:30:23;;;;;;;5.07;0.90;;;;;;;;;;6183496;23;20051;-89
2023/04/13 10:33:09;;;;;;;3.15;1.17;;;;;;;;;;6181825;23;20735;-88
2023/04/13 10:35:56;;;;;;;2.40;0.80;;;;;;;;;;6183635;23;20103;-89
2023/04/13 10:38:47;;;;;;;4.82;1.13;;;;;;;;;;6183076;23;20020;-89
2023/04/13 10:41:32;;;;;;;1.88;0.80;;;;;;;;;;6182637;23;20569;-89
2023/04/13 10:44:16;;;;;;;4.10;0.80;;;;;;;;;;6179805;23;20039;-89
2023/04/13 10:47:04;;;;;;;3.08;0.90;;;;;;;;;;6180943;23;20016;-88
2023/04/13 10:49:51;;;;;;;5.05;1.30;;;;;;;;;;6181635;23;20020;-91
2023/04/13 10:52:36;;;;;;;4.80;1.90;;;;;;;;;;6181155;23;20020;-89
2023/04/13 10:55:23;;;;;;;5.22;1.75;;;;;;;;;;6177952;23;20095;-90
2023/04/13 10:58:16;;;;;;;4.60;1.25;;;;;;;;;;6180339;23;20040;-89
2023/04/13 11:01:02;;;;;;;8.00;1.40;;;;;;;;;;6180737;23;20027;-89
2023/04/13 11:03:47;;;;;;;5.28;1.65;;;;;;;;;;6181470;23;20016;-90
2023/04/13 11:06:36;;;;;;;4.28;1.30;;;;;;;;;;6180954;23;20020;-89
2023/04/13 11:09:21;;;;;;;9.18;2.17;;;;;;;;;;6181214;23;20478;-89
2023/04/13 11:12:07;;;;;;;8.40;2.10;;;;;;;;;;6180561;23;20016;-89
2023/04/13 11:14:52;;;;;;;9.10;3.10;;;;;;;;;;6181189;23;20044;-92
2023/04/13 11:17:37;;;;;;;7.38;2.08;;;;;;;;;;6181319;23;20032;-89
2023/04/13 11:20:31;;;;;;;8.88;2.50;;;;;;;;;;6182611;23;20016;-90
2023/04/13 11:23:17;;;;;;;6.47;2.20;;;;;;;;;;6180696;23;20070;-89
2023/04/13 11:26:03;;;;;;;12.43;2.42;;;;;;;;;;6180821;23;20056;-89
2023/04/13 11:28:48;;;;;;;10.50;2.28;;;;;;;;;;6181341;23;20012;-89
2023/04/13 11:31:39;;;;;;;12.13;2.90;;;;;;;;;;6181320;23;20507;-89
2023/04/13 11:34:25;;;;;;;10.13;2.53;;;;;;;;;;6180879;23;20016;-89
2023/04/13 11:37:10;;;;;;;11.40;2.08;;;;;;;;;;6180876;23;20478;-87
2023/04/13 11:39:56;;;;;;;9.48;2.15;;;;;;;;;;6181666;23;20347;-92
2023/04/13 11:42:41;;;;;;;12.07;2.03;;;;;;;;;;6181304;23;20390;-91
2023/04/13 11:45:27;;;;;;;10.57;2.03;;;;;;;;;;6181048;23;20036;-89
2023/04/13 11:48:12;;;;;;;9.40;2.17;;;;;;;;;;6181306;23;20012;-88
2023/04/13 11:50:57;;;;;;;13.18;2.20;;;;;;;;;;6181898;23;20024;-91
2023/04/13 11:53:42;;;;;;;16.05;2.70;;;;;;;;;;6182117;23;20447;-88
2023/04/13 11:56:27;;;;;;;13.68;3.17;;;;;;;;;;6173006;23;20096;-88
2023/04/13 11:59:12;;;;;;;8.43;1.85;;;;;;;;;;6147311;23;20075;-87
2023/04/13 12:01:56;;;;;;;8.80;1.65;;;;;;;;;;6175333;23;20027;-87
2023/04/13 12:04:41;;;;;;;15.60;2.53;;;;;;;;;;6179512;23;20024;-88
2023/04/13 12:07:26;;;;;;;10.35;1.85;;;;;;;;;;6181950;23;20104;-88
2023/04/13 12:10:18;;;;;;;14.00;2.95;;;;;;;;;;6159051;23;20028;-89
2023/04/13 12:13:05;;;;;;;11.30;2.25;;;;;;;;;;6181804;23;20036;-88
2023/04/13 12:15:51;;;;;;;7.15;2.00;;;;;;;;;;6180579;23;20263;-87
2023/04/13 12:18:42;;;;;;;7.45;2.10;;;;;;;;;;6182286;23;20131;-88
2023/04/13 12:21:27;;;;;;;7.43;1.63;;;;;;;;;;6182150;23;20033;-88
2023/04/13 12:24:12;;;;;;;6.85;1.95;;;;;;;;;;6181630;23;20020;-88
2023/04/13 12:26:56;;;;;;;10.60;2.00;;;;;;;;;;6182345;23;20601;-87
2023/04/13 12:29:41;;;;;;;13.32;2.17;;;;;;;;;;6182905;23;20089;-88
2023/04/13 12:32:25;;;;;;;9.20;1.70;;;;;;;;;;6183764;23;20392;-86
2023/04/13 12:35:10;;;;;;;7.68;1.50;;;;;;;;;;6182986;23;20012;-86
2023/04/13 12:37:54;;;;;;;10.23;2.13;;;;;;;;;;6184750;23;20079;-88
2023/04/13 12:40:39;;;;;;;14.30;2.70;;;;;;;;;;6181959;23;20391;-88
2023/04/13 12:43:24;;;;;;;12.75;2.13;;;;;;;;;;6182888;23;20527;-88
2023/04/13 12:46:09;;;;;;;6.90;2.08;;;;;;;;;;6182819;23;20084;-87
2023/04/13 12:48:55;;;;;;;13.48;2.17;;;;;;;;;;6182851;23;20052;-87
2023/04/13 12:51:39;;;;;;;10.32;2.22;;;;;;;;;;6182219;23;20027;-86
2023/04/13 12:54:24;;;;;;;13.98;2.03;;;;;;;;;;6182044;23;20083;-86
2023/04/13 12:57:09;;;;;;;9.50;1.95;;;;;;;;;;6184586;23;20063;-86
2023/04/13 12:59:53;;;;;;;11.10;2.05;;;;;;;;;;6184016;23;20100;-88
2023/04/13 13:02:38;;;;;;;15.45;2.53;;;;;;;;;;6183648;23;20032;-87
2023/04/13 13:05:23;;;;;;;16.80;2.00;;;;;;;;;;6184352;23;20016;-87
2023/04/13 13:08:08;;;;;;;6.78;1.67;;;;;;;;;;6184295;23;20091;-91
2023/04/13 13:10:52;;;;;;;11.63;1.90;;;;;;;;;;6183741;23;20029;-86
2023/04/13 13:13:37;;;;;;;13.63;1.95;;;;;;;;;;6183248;23;20020;-86
2023/04/13 13:16:21;;;;;;;6.18;1.45;;;;;;;;;;6182080;23;20347;-87
2023/04/13 13:19:06;;;;;;;6.20;1.73;;;;;;;;;;6184014;23;20020;-89
2023/04/13 13:21:51;;;;;;;10.05;1.98;;;;;;;;;;6184245;23;20104;-87
2023/04/13 13:24:35;;;;;;;9.48;1.85;;;;;;;;;;6163771;23;20153;-87
2023/04/13 13:27:19;;;;;;;7.70;1.60;;;;;;;;;;6184424;23;20063;-87
2023/04/13 13:30:05;;;;;;;10.18;2.42;;;;;;;;;;6184841;23;20104;-86
2023/04/13 13:32:50;;;;;;;7.53;1.77;;;;;;;;;;6184975;23;20039;-86
2023/04/13 13:35:35;;;;;;;11.60;2.08;;;;;;;;;;6183976;23;20019;-87
2023/04/13 13:38:19;;;;;;;7.07;1.85;;;;;;;;;;6184803;23;20071;-86
2023/04/13 13:41:04;;;;;;;9.43;2.50;;;;;;;;;;6162352;23;20024;-90
2023/04/13 13:43:49;;;;;;;9.85;1.90;;;;;;;;;;6183284;23;20031;-85
2023/04/13 13:46:35;;;;;;;13.07;2.60;;;;;;;;;;6182882;23;20105;-87
2023/04/13 13:49:20;;;;;;;9.95;1.83;;;;;;;;;;6182918;23;20073;-86
2023/04/13 13:52:04;;;;;;;8.77;1.42;;;;;;;;;;6182832;23;20396;-88
2023/04/13 13:54:50;;;;;;;6.97;1.77;;;;;;;;;;6184107;23;20451;-87
2023/04/13 13:57:34;;;;;;;9.68;1.60;;;;;;;;;;6161701;23;20375;-88
2023/04/13 14:00:19;;;;;;;10.35;2.72;;;;;;;;;;6182490;23;20047;-90
2023/04/13 14:03:04;;;;;;;12.20;1.92;;;;;;;;;;6162814;23;20024;-88
2023/04/13 14:05:49;;;;;;;16.20;3.40;;;;;;;;;;6183327;23;20021;-89
2023/04/13 14:08:37;;;;;;;8.55;1.60;;;;;;;;;;6183170;23;20063;-88
2023/04/13 14:11:21;;;;;;;10.32;1.88;;;;;;;;;;6183137;23;20020;-86
2023/04/13 14:14:06;;;;;;;9.38;1.88;;;;;;;;;;6184720;23;20048;-88
2023/04/13 14:16:51;;;;;;;11.93;2.67;;;;;;;;;;6183488;23;20072;-87
2023/04/13 14:19:38;;;;;;;11.05;2.13;;;;;;;;;;6162697;23;20092;-87
2023/04/13 14:22:22;;;;;;;8.85;2.30;;;;;;;;;;6184315;23;20024;-87
2023/04/13 14:25:11;;;;;;;9.07;1.77;;;;;;;;;;6183711;23;20059;-87
2023/04/13 14:27:55;;;;;;;15.45;2.13;;;;;;;;;;6185054;23;20028;-87
2023/04/13 14:30:40;;;;;;;7.28;1.90;;;;;;;;;;6183115;23;20016;-86
2023/04/13 14:33:27;;;;;;;8.55;1.75;;;;;;;;;;6184016;23;20431;-87
2023/04/13 14:36:14;;;;;;;8.18;1.58;;;;;;;;;;6184566;23;20075;-87
2023/04/13 14:38:58;;;;;;;4.78;1.50;;;;;;;;;;6184865;23;20071;-88
2023/04/13 14:41:48;;;;;;;9.80;1.70;;;;;;;;;;6183797;23;20144;-87
2023/04/13 14:44:33;;;;;;;7.57;1.70;;;;;;;;;;6182366;23;20567;-86
2023/04/13 14:47:18;;;;;;;9.20;1.58;;;;;;;;;;6183564;23;20443;-87
2023/04/13 14:50:03;;;;;;;6.80;2.05;;;;;;;;;;6183623;23;20447;-88
2023/04/13 14:52:47;;;;;;;7.70;1.83;;;;;;;;;;6183664;23;20020;-87
2023/04/13 14:55:32;;;;;;;9.63;1.90;;;;;;;;;;6183069;23;20043;-87
2023/04/13 14:58:16;;;;;;;8.77;2.10;;;;;;;;;;6184493;23;20017;-87
2023/04/13 15:01:01;;;;;;;9.38;2.00;;;;;;;;;;6183127;23;20092;-87
2023/04/13 15:03:46;;;;;;;12.10;2.30;;;;;;;;;;6184793;23;20381;-87
2023/04/13 15:06:31;;;;;;;5.75;2.00;;;;;;;;;;6182726;23;20027;-89
2023/04/13 15:09:16;;;;;;;7.05;1.40;;;;;;;;;;6162272;23;20020;-87
2023/04/13 15:12:03;;;;;;;7.35;1.63;;;;;;;;;;6162623;23;20024;-87
2023/04/13 15:14:49;;;;;;;7.97;1.83;;;;;;;;;;6185781;23;20044;-87
2023/04/13 15:17:34;;;;;;;8.88;1.77;;;;;;;;;;6183489;23;20074;-87
2023/04/13 15:20:21;;;;;;;9.63;2.72;;;;;;;;;;6182765;23;20113;-87
2023/04/13 15:23:07;;;;;;;7.35;1.83;;;;;;;;;;6163210;23;20719;-88
2023/04/13 15:25:52;;;;;;;5.97;1.40;;;;;;;;;;6187687;23;20015;-88
2023/04/13 15:28:37;;;;;;;5.63;1.48;;;;;;;;;;6186464;23;20051;-87
2023/04/13 15:31:22;;;;;;;8.63;1.70;;;;;;;;;;6183187;23;20051;-90
2023/04/13 15:34:07;;;;;;;9.50;1.55;;;;;;;;;;6182009;23;20050;-86
2023/04/13 15:36:51;;;;;;;5.88;1.63;;;;;;;;;;6182550;23;20144;-88
2023/04/13 15:39:36;;;;;;;6.35;1.55;;;;;;;;;;6182663;23;20450;-87
2023/04/13 15:42:21;;;;;;;8.00;1.73;;;;;;;;;;6183303;23;20159;-87
2023/04/13 15:45:08;;;;;;;13.75;2.72;;;;;;;;;;6183214;23;20016;-87
2023/04/13 15:47:53;;;;;;;7.82;1.88;;;;;;;;;;6182557;23;20154;-89
2023/04/13 15:50:37;;;;;;;9.05;1.77;;;;;;;;;;6182640;23;20107;-86
2023/04/13 15:53:22;;;;;;;10.13;1.92;;;;;;;;;;6182505;23;20012;-86
2023/04/13 15:56:07;;;;;;;7.32;1.75;;;;;;;;;;6183972;23;20027;-85
2023/04/13 15:58:52;;;;;;;10.10;2.35;;;;;;;;;;6183688;23;20016;-86
2023/04/13 16:01:44;;;;;;;9.45;1.95;;;;;;;;;;6181950;23;20028;-87
2023/04/13 16:04:28;;;;;;;9.57;1.85;;;;;;;;;;6181961;23;20034;-88
2023/04/13 16:07:12;;;;;;;7.15;2.08;;;;;;;;;;6184389;23;20101;-87
2023/04/13 16:09:57;;;;;;;13.05;2.30;;;;;;;;;;6182676;23;20048;-87
2023/04/13 16:12:42;;;;;;;7.25;1.70;;;;;;;;;;6161472;23;20024;-88
2023/04/13 16:15:27;;;;;;;7.00;1.67;;;;;;;;;;6182839;23;20479;-86
2023/04/13 16:18:11;;;;;;;10.73;1.88;;;;;;;;;;6182580;23;20028;-87
2023/04/13 16:20:56;;;;;;;9.57;1.90;;;;;;;;;;6183560;23;20051;-86
2023/04/13 16:23:42;;;;;;;4.55;2.35;;;;;;;;;;6182241;23;20023;-86
2023/04/13 16:26:27;;;;;;;11.07;3.00;;;;;;;;;;6184202;23;20079;-86
2023/04/13 16:29:12;;;;;;;12.20;1.95;;;;;;;;;;6183517;23;20064;-84
2023/04/13 16:32:00;;;;;;;7.43;1.90;;;;;;;;;;6185862;23;20035;-89